Time;durP1;ratioP1;P1;durP2;ratioP2;P2;SDS_P1;SDS_P2;PMS_P1;PMS_P2;Temp;Humidity;BMP_temperature;BMP_pressure;BME280_temperature;BME280_humidity;BME280_pressure;Samples;Min_cycle;Max_cycle;Signal;HPM_P1;HPM_P2
2022/09/02 00:01:00;;;;;;;23.50;11.68;;;;;;;17.22;100.00;99487.91;4849729;29;20118;-83
2022/09/02 00:03:35;;;;;;;18.23;11.32;;;;;;;17.18;100.00;99492.06;4848355;29;20029;-83
2022/09/02 00:06:02;;;;;;;14.90;10.50;;;;;;;17.13;100.00;99487.44;4849232;29;20109;-84
2022/09/02 00:08:30;;;;;;;19.48;11.18;;;;;;;17.11;100.00;99476.25;4852194;29;20037;-82
2022/09/02 00:10:57;;;;;;;16.02;10.98;;;;;;;17.03;100.00;99473.94;4869318;29;20030;-83
2022/09/02 00:13:25;;;;;;;26.35;12.10;;;;;;;16.99;100.00;99478.84;4865655;29;20033;-83
2022/09/02 00:15:51;;;;;;;20.73;11.85;;;;;;;17.06;100.00;99477.94;4845534;29;20034;-81
2022/09/02 00:18:17;;;;;;;23.20;12.70;;;;;;;17.01;100.00;99480.47;4866212;29;20471;-83
2022/09/02 00:20:47;;;;;;;21.15;12.30;;;;;;;17.09;100.00;99486.28;4850473;29;20034;-83
2022/09/02 00:23:15;;;;;;;19.52;13.60;;;;;;;16.80;100.00;99450.75;4852052;29;20438;-83
2022/09/02 00:25:43;;;;;;;17.40;11.95;;;;;;;17.06;100.00;99480.59;4854693;29;20044;-84
2022/09/02 00:28:09;;;;;;;18.20;11.52;;;;;;;16.91;100.00;99459.78;4848925;29;20396;-84
2022/09/02 00:30:36;;;;;;;15.85;11.02;;;;;;;16.78;100.00;99444.88;4849021;29;20117;-84
2022/09/02 00:33:02;;;;;;;18.85;11.20;;;;;;;16.85;100.00;99445.56;4852145;29;20052;-84
2022/09/02 00:35:31;;;;;;;15.00;10.40;;;;;;;16.65;100.00;99408.75;4850519;29;20038;-85
2022/09/02 00:37:59;;;;;;;22.73;12.65;;;;;;;16.98;100.00;99461.34;4835968;29;20037;-86
2022/09/02 00:40:27;;;;;;;16.90;12.05;;;;;;;16.94;100.00;99459.31;4854943;29;20034;-86
2022/09/02 00:42:52;;;;;;;18.63;12.48;;;;;;;16.86;100.00;99436.59;4853527;29;20067;-84
2022/09/02 00:45:20;;;;;;;17.73;12.00;;;;;;;16.98;100.00;99457.84;4833248;29;20033;-84
2022/09/02 00:47:49;;;;;;;23.52;13.20;;;;;;;17.01;100.00;99457.44;4857459;29;20041;-83
2022/09/02 00:50:20;;;;;;;22.25;12.75;;;;;;;17.01;100.00;99453.97;4848439;29;20068;-86
2022/09/02 00:52:50;;;;;;;24.02;13.38;;;;;;;16.99;100.00;99439.09;4852223;29;20081;-84
2022/09/02 00:55:21;;;;;;;20.23;14.40;;;;;;;17.05;100.00;99447.16;4854284;29;20034;-84
2022/09/02 00:57:59;;;;;;;22.60;13.57;;;;;;;17.05;100.00;99437.38;4833501;29;20540;-85
2022/09/02 01:00:29;;;;;;;22.77;13.93;;;;;;;17.03;100.00;99435.97;4852678;29;20449;-85
2022/09/02 01:03:00;;;;;;;25.52;13.85;;;;;;;17.03;100.00;99428.84;4865478;29;20401;-86
2022/09/02 01:05:29;;;;;;;19.35;14.23;;;;;;;17.10;100.00;99431.41;4860964;29;20033;-84
2022/09/02 01:08:08;;;;;;;20.13;12.77;;;;;;;16.98;100.00;99420.72;4850685;29;20026;-84
2022/09/02 01:10:35;;;;;;;22.42;13.75;;;;;;;16.90;100.00;99416.56;4851039;29;20082;-85
2022/09/02 01:13:05;;;;;;;27.13;15.48;;;;;;;16.93;100.00;99418.75;4847971;29;20140;-84
2022/09/02 01:15:36;;;;;;;20.13;14.38;;;;;;;16.98;100.00;99412.75;4852073;29;20392;-85
2022/09/02 01:18:05;;;;;;;22.17;14.90;;;;;;;17.01;100.00;99419.50;4845789;29;20456;-85
2022/09/02 01:20:34;;;;;;;27.25;16.00;;;;;;;16.77;100.00;99376.97;4848606;29;20066;-84
2022/09/02 01:23:01;;;;;;;20.15;15.57;;;;;;;16.74;100.00;99366.84;4854522;29;20040;-84
2022/09/02 01:25:30;;;;;;;22.73;15.07;;;;;;;16.72;100.00;99390.13;4846038;29;20387;-84
2022/09/02 01:28:07;;;;;;;20.65;14.45;;;;;;;16.90;100.00;99410.44;4850221;29;20082;-85
2022/09/02 01:30:35;;;;;;;20.45;13.00;;;;;;;16.85;100.00;99397.84;4851066;29;20046;-85
2022/09/02 01:33:01;;;;;;;24.90;15.73;;;;;;;16.65;100.00;99377.75;4848044;29;20666;-84
2022/09/02 01:35:27;;;;;;;20.65;14.60;;;;;;;16.72;100.00;99382.16;4851516;29;20044;-85
2022/09/02 01:37:57;;;;;;;23.92;15.18;;;;;;;16.72;100.00;99366.25;4852475;29;20045;-85
2022/09/02 01:40:25;;;;;;;24.48;13.30;;;;;;;16.86;100.00;99388.88;4850605;29;20068;-86
2022/09/02 01:42:58;;;;;;;28.20;17.65;;;;;;;16.95;100.00;99398.13;4848242;29;20041;-84
2022/09/02 01:45:24;;;;;;;22.75;14.35;;;;;;;16.93;100.00;99400.19;4854972;29;20029;-84
2022/09/02 01:47:50;;;;;;;23.00;15.10;;;;;;;16.88;100.00;99384.13;4836919;29;20491;-84
2022/09/02 01:50:16;;;;;;;24.50;15.07;;;;;;;16.94;100.00;99388.56;4853347;29;20034;-84
2022/09/02 01:52:41;;;;;;;26.77;15.25;;;;;;;16.84;100.00;99380.34;4851476;29;20041;-86
2022/09/02 01:55:07;;;;;;;32.13;15.13;;;;;;;16.83;100.00;99378.72;4859114;29;20038;-85
2022/09/02 01:57:33;;;;;;;22.88;15.23;;;;;;;16.80;100.00;99371.22;4848358;29;20029;-86
2022/09/02 02:00:00;;;;;;;26.33;16.98;;;;;;;16.72;100.00;99360.97;4835429;29;20070;-85
2022/09/02 02:02:27;;;;;;;33.60;17.38;;;;;;;16.81;100.00;99375.50;4854376;29;20120;-87
2022/09/02 02:04:53;;;;;;;24.60;14.63;;;;;;;16.80;100.00;99363.28;4854751;29;20095;-86
2022/09/02 02:07:21;;;;;;;25.27;15.55;;;;;;;16.70;100.00;99354.06;4839671;29;20395;-86
2022/09/02 02:09:47;;;;;;;31.77;18.90;;;;;;;16.69;100.00;99357.69;4851724;29;20071;-86
2022/09/02 02:12:14;;;;;;;28.88;15.93;;;;;;;16.65;100.00;99351.25;4846718;29;20512;-88
2022/09/02 02:14:40;;;;;;;29.50;17.33;;;;;;;16.75;100.00;99361.28;4866352;29;20084;-86
2022/09/02 02:17:06;;;;;;;35.85;19.23;;;;;;;16.61;100.00;99357.25;4846905;29;20075;-85
2022/09/02 02:19:33;;;;;;;36.53;19.40;;;;;;;16.59;100.00;99349.50;4849040;29;20046;-83
2022/09/02 02:21:58;;;;;;;41.00;21.23;;;;;;;16.67;100.00;99351.81;4851022;29;20038;-84
2022/09/02 02:24:24;;;;;;;31.40;19.15;;;;;;;16.67;100.00;99353.69;4845612;29;20030;-85
2022/09/02 02:26:50;;;;;;;42.00;21.90;;;;;;;16.62;100.00;99351.72;4849791;29;20071;-84
2022/09/02 02:29:16;;;;;;;42.58;21.10;;;;;;;16.61;100.00;99342.13;4851984;29;20058;-84
2022/09/02 02:31:44;;;;;;;34.83;20.65;;;;;;;16.66;100.00;99339.59;4845532;29;20041;-83
2022/09/02 02:34:10;;;;;;;36.38;20.50;;;;;;;16.55;100.00;99320.00;4851549;29;20942;-85
2022/09/02 02:36:38;;;;;;;42.55;22.95;;;;;;;16.64;100.00;99323.13;4850470;29;20492;-86
2022/09/02 02:39:05;;;;;;;44.25;24.02;;;;;;;16.53;100.00;99323.94;4854468;29;20548;-87
2022/09/02 02:41:30;;;;;;;40.38;21.98;;;;;;;16.69;100.00;99333.84;4864307;29;20469;-86
2022/09/02 02:43:56;;;;;;;43.72;23.77;;;;;;;16.40;100.00;99299.22;4850266;29;20048;-87
2022/09/02 02:46:22;;;;;;;38.13;23.00;;;;;;;16.65;100.00;99329.25;4834798;29;20033;-84
2022/09/02 02:48:47;;;;;;;37.50;21.83;;;;;;;16.66;100.00;99320.25;4854220;29;20041;-87
2022/09/02 02:51:13;;;;;;;39.40;22.75;;;;;;;16.74;100.00;99327.09;4832526;29;20034;-84
2022/09/02 02:53:39;;;;;;;42.50;24.13;;;;;;;16.66;100.00;99315.75;4835035;29;20037;-85
2022/09/02 02:56:06;;;;;;;45.15;24.58;;;;;;;16.69;100.00;99323.25;4852565;29;20041;-84
2022/09/02 02:58:32;;;;;;;42.40;23.60;;;;;;;16.62;100.00;99319.91;4841590;29;20128;-84
2022/09/02 03:00:59;;;;;;;48.22;25.95;;;;;;;16.52;100.00;99314.38;4863473;29;20396;-85
2022/09/02 03:03:26;;;;;;;42.47;24.05;;;;;;;16.44;100.00;99306.72;4836075;29;20069;-84
2022/09/02 03:05:57;;;;;;;43.85;24.88;;;;;;;16.43;100.00;99319.19;4853399;29;20455;-85
2022/09/02 03:08:24;;;;;;;53.90;27.23;;;;;;;16.47;100.00;99323.00;4869319;29;20066;-85
2022/09/02 03:10:53;;;;;;;50.10;26.33;;;;;;;16.30;100.00;99298.97;4854927;29;20073;-84
2022/09/02 03:13:20;;;;;;;48.15;26.35;;;;;;;16.46;100.00;99325.84;4866724;29;20038;-85
2022/09/02 03:15:46;;;;;;;49.42;26.08;;;;;;;16.48;100.00;99318.47;4835130;29;20044;-85
2022/09/02 03:18:12;;;;;;;46.08;25.92;;;;;;;16.46;100.00;99315.25;4834303;29;20056;-85
2022/09/02 03:20:39;;;;;;;45.13;27.35;;;;;;;16.32;100.00;99299.56;4852437;29;20038;-84
2022/09/02 03:23:11;;;;;;;48.92;26.92;;;;;;;16.38;100.00;99301.31;4857811;29;20040;-84
2022/09/02 03:25:36;;;;;;;49.88;28.02;;;;;;;16.28;100.00;99274.53;4852039;29;20108;-84
2022/09/02 03:28:03;;;;;;;51.80;26.52;;;;;;;16.37;100.00;99281.16;4853336;29;20125;-85
2022/09/02 03:30:30;;;;;;;58.45;27.98;;;;;;;16.51;100.00;99302.16;4849638;29;20029;-86
2022/09/02 03:32:59;;;;;;;53.95;27.50;;;;;;;16.40;100.00;99307.19;4854087;29;20034;-85
2022/09/02 03:35:25;;;;;;;60.20;29.70;;;;;;;16.33;100.00;99306.47;4854858;29;20564;-85
2022/09/02 03:37:52;;;;;;;54.17;29.02;;;;;;;16.46;100.00;99308.13;4855390;29;20491;-84
2022/09/02 03:40:22;;;;;;;59.30;29.23;;;;;;;16.44;100.00;99307.53;4837399;29;20046;-85
2022/09/02 03:42:48;;;;;;;59.08;29.83;;;;;;;16.35;100.00;99293.81;4853222;29;20061;-85
2022/09/02 03:45:14;;;;;;;61.40;30.65;;;;;;;16.32;100.00;99294.28;4851361;29;20052;-86
2022/09/02 03:47:46;;;;;;;53.95;29.30;;;;;;;16.35;100.00;99293.81;4864869;29;20034;-85
2022/09/02 03:50:11;;;;;;;64.15;29.77;;;;;;;16.30;100.00;99298.97;4847820;29;20495;-86
2022/09/02 03:52:37;;;;;;;65.43;32.20;;;;;;;16.31;100.00;99291.84;4852048;29;20076;-84
2022/09/02 03:55:04;;;;;;;67.55;31.35;;;;;;;16.23;100.00;99261.19;4852243;29;20034;-86
2022/09/02 03:57:33;;;;;;;57.90;29.52;;;;;;;16.36;100.00;99278.72;4847240;29;20041;-87
2022/09/02 04:00:22;;;;;;;60.00;30.55;;;;;;;16.27;100.00;99262.34;4850780;29;20034;-86
2022/09/02 04:02:49;;;;;;;64.10;30.58;;;;;;;16.45;100.00;99287.97;4852724;29;20732;-85
2022/09/02 04:05:15;;;;;;;72.15;31.65;;;;;;;16.33;100.00;99273.88;4845850;29;20037;-84
2022/09/02 04:07:41;;;;;;;72.78;33.90;;;;;;;16.43;100.00;99290.03;4848929;29;20428;-84
2022/09/02 04:10:08;;;;;;;74.15;33.08;;;;;;;16.08;100.00;99249.16;4853693;29;20189;-86
2022/09/02 04:12:36;;;;;;;67.32;32.50;;;;;;;16.26;100.00;99273.97;4846470;29;20081;-86
2022/09/02 04:15:06;;;;;;;77.13;34.15;;;;;;;16.27;100.00;99270.28;4851067;29;20033;-85
2022/09/02 04:17:35;;;;;;;73.38;32.55;;;;;;;16.27;100.00;99264.97;4850306;29;20368;-85
2022/09/02 04:20:02;;;;;;;70.30;35.08;;;;;;;16.30;100.00;99259.22;4862885;29;20117;-85
2022/09/02 04:22:27;;;;;;;68.40;32.28;;;;;;;16.17;100.00;99246.19;4855733;29;20033;-86
2022/09/02 04:24:53;;;;;;;68.10;33.25;;;;;;;16.10;100.00;99249.72;4850309;29;20043;-85
2022/09/02 04:27:19;;;;;;;70.85;34.95;;;;;;;16.33;100.00;99272.03;4849488;29;20034;-86
2022/09/02 04:29:44;;;;;;;79.05;35.33;;;;;;;16.16;100.00;99231.34;4851821;29;20384;-84
2022/09/02 04:32:10;;;;;;;77.10;35.00;;;;;;;16.33;100.00;99253.50;4863607;29;20378;-85
2022/09/02 04:34:35;;;;;;;74.10;34.28;;;;;;;16.34;100.00;99265.72;4857083;29;20040;-84
2022/09/02 04:37:01;;;;;;;79.75;34.92;;;;;;;16.40;100.00;99264.78;4851922;29;20113;-84
2022/09/02 04:39:28;;;;;;;83.22;36.63;;;;;;;16.31;100.00;99252.09;4835633;29;20404;-85
2022/09/02 04:41:53;;;;;;;79.15;36.80;;;;;;;16.38;100.00;99266.88;4833857;29;20030;-85
2022/09/02 04:44:19;;;;;;;76.22;35.22;;;;;;;16.26;100.00;99258.06;4851608;29;20519;-85
2022/09/02 04:46:45;;;;;;;75.82;36.38;;;;;;;16.21;100.00;99250.00;4852396;29;20130;-86
2022/09/02 04:49:11;;;;;;;88.93;37.55;;;;;;;16.22;100.00;99246.31;4850762;29;20481;-85
2022/09/02 04:51:37;;;;;;;88.88;38.33;;;;;;;16.27;100.00;99264.97;4851831;29;20036;-84
2022/09/02 04:54:03;;;;;;;83.90;38.78;;;;;;;16.26;100.00;99268.66;4868255;29;20045;-85
2022/09/02 04:56:32;;;;;;;83.30;37.55;;;;;;;16.21;100.00;99260.59;4849812;29;20040;-86
2022/09/02 04:58:59;;;;;;;89.47;39.25;;;;;;;16.15;100.00;99235.81;4835549;29;20075;-84
2022/09/02 05:01:28;;;;;;;89.28;40.30;;;;;;;16.24;100.00;99262.78;4854047;29;20500;-86
2022/09/02 05:03:55;;;;;;;95.47;43.10;;;;;;;16.29;100.00;99265.56;4855548;29;20398;-86
2022/09/02 05:06:25;;;;;;;81.25;41.03;;;;;;;16.25;100.00;99245.88;4853682;29;20034;-85
2022/09/02 05:08:53;;;;;;;84.25;39.42;;;;;;;16.35;100.00;99255.91;4852761;29;20496;-86
2022/09/02 05:11:21;;;;;;;91.82;40.75;;;;;;;16.17;100.00;99254.94;4852735;29;20504;-86
2022/09/02 05:13:50;;;;;;;87.03;39.97;;;;;;;16.13;100.00;99237.91;4835149;29;20051;-85
2022/09/02 05:16:36;;;;;;;76.38;37.78;;;;;;;16.26;100.00;99247.47;4848145;29;20544;-85
2022/09/02 05:19:04;;;;;;;83.35;38.80;;;;;;;16.36;100.00;99253.03;4843373;29;20106;-86
2022/09/02 05:21:30;;;;;;;93.57;40.10;;;;;;;16.26;100.00;99247.47;4852697;29;20124;-84
2022/09/02 05:23:57;;;;;;;87.25;40.42;;;;;;;16.35;100.00;99251.44;4847885;29;20129;-85
2022/09/02 05:26:23;;;;;;;85.97;39.05;;;;;;;16.33;100.00;99258.81;4846314;29;20415;-84
2022/09/02 05:28:49;;;;;;;78.75;39.33;;;;;;;16.25;100.00;99253.81;4847408;29;20038;-83
2022/09/02 05:31:18;;;;;;;81.93;38.63;;;;;;;16.31;100.00;99260.06;4852885;29;20033;-84
2022/09/02 05:33:44;;;;;;;79.22;37.58;;;;;;;16.20;100.00;99243.88;4834713;29;20097;-85
2022/09/02 05:36:16;;;;;;;70.95;36.65;;;;;;;16.30;100.00;99247.84;4851340;29;20383;-83
2022/09/02 05:38:43;;;;;;;70.90;38.47;;;;;;;16.24;100.00;99231.84;4847895;29;20125;-85
2022/09/02 05:41:13;;;;;;;87.22;38.22;;;;;;;16.24;100.00;99249.56;4851478;29;20181;-84
2022/09/02 05:43:43;;;;;;;77.68;39.38;;;;;;;16.26;100.00;99240.34;4851530;29;20462;-85
2022/09/02 05:46:11;;;;;;;79.18;39.72;;;;;;;16.23;100.00;99247.94;4850344;29;20547;-84
2022/09/02 05:51:23;;;;;;;74.10;38.70;;;;;;;16.19;100.00;99241.47;4846884;29;20057;-85
2022/09/02 05:53:53;;;;;;;82.75;38.33;;;;;;;16.16;100.00;99231.34;4868231;29;20479;-85
2022/09/02 05:56:20;;;;;;;76.53;39.22;;;;;;;16.13;100.00;99244.00;4847169;29;20038;-85
2022/09/02 05:58:46;;;;;;;87.85;40.95;;;;;;;16.08;100.00;99235.13;4848057;29;20087;-84
2022/09/02 06:01:14;;;;;;;88.63;39.88;;;;;;;16.05;100.00;99244.31;4853589;29;20515;-85
2022/09/02 06:03:40;;;;;;;76.40;39.28;;;;;;;16.02;100.00;99238.69;4850003;29;20034;-84
2022/09/02 06:06:06;;;;;;;85.05;38.50;;;;;;;16.07;100.00;99242.25;4844785;29;20030;-85
2022/09/02 06:08:33;;;;;;;73.68;36.38;;;;;;;16.10;100.00;99249.72;4849513;29;20585;-85
2022/09/02 06:11:02;;;;;;;76.70;37.85;;;;;;;16.02;100.00;99241.34;4853095;29;20076;-85
2022/09/02 06:13:30;;;;;;;71.03;38.17;;;;;;;16.08;100.00;99241.22;4852829;29;20403;-83
2022/09/02 06:15:56;;;;;;;72.03;37.20;;;;;;;16.32;100.00;99254.53;4851867;29;20384;-82
2022/09/02 06:18:23;;;;;;;80.07;39.00;;;;;;;16.36;100.00;99245.09;4850202;29;20034;-84
2022/09/02 06:20:49;;;;;;;72.43;38.35;;;;;;;16.46;100.00;99256.97;4847249;29;20084;-82
2022/09/02 06:23:16;;;;;;;84.50;40.08;;;;;;;16.41;100.00;99239.13;4846207;29;20121;-81
2022/09/02 06:25:45;;;;;;;81.07;38.58;;;;;;;16.27;100.00;99230.56;4849026;29;20030;-85
2022/09/02 06:28:11;;;;;;;80.45;38.38;;;;;;;16.32;100.00;99243.13;4834462;29;20034;-84
2022/09/02 06:30:39;;;;;;;73.75;38.05;;;;;;;16.41;100.00;99242.56;4850072;29;20030;-84
2022/09/02 06:33:06;;;;;;;65.40;36.28;;;;;;;16.39;100.00;99234.03;4857457;29;20042;-83
2022/09/02 06:35:36;;;;;;;64.57;36.10;;;;;;;16.52;100.00;99237.53;4848849;29;20040;-82
2022/09/02 06:38:02;;;;;;;64.75;34.17;;;;;;;16.60;100.00;99239.00;4836475;29;20396;-83
2022/09/02 06:40:28;;;;;;;62.58;34.22;;;;;;;16.72;100.00;99249.63;4852448;29;20034;-84
2022/09/02 06:42:55;;;;;;;63.83;33.70;;;;;;;16.74;100.00;99236.97;4856356;29;20030;-83
2022/09/02 06:45:23;;;;;;;67.32;34.05;;;;;;;16.73;100.00;99246.75;4849899;29;20030;-85
2022/09/02 06:47:49;;;;;;;65.00;35.15;;;;;;;16.63;100.00;99230.63;4851908;29;20120;-84
2022/09/02 06:50:16;;;;;;;65.43;33.92;;;;;;;16.63;100.00;99235.91;4852632;29;20025;-84
2022/09/02 06:52:41;;;;;;;66.40;36.95;;;;;;;16.66;100.00;99241.56;4848323;29;20428;-83
2022/09/02 06:55:09;;;;;;;66.57;35.95;;;;;;;16.69;100.00;99235.00;4852067;29;20033;-84
2022/09/02 06:57:36;;;;;;;62.90;33.92;;;;;;;16.82;100.00;99234.78;4851765;29;20032;-83
2022/09/02 07:00:09;;;;;;;60.83;34.22;;;;;;;16.83;100.00;99224.97;4850443;29;20075;-83
2022/09/02 07:02:36;;;;;;;73.47;38.17;;;;;;;16.73;100.00;99216.78;4852671;29;20552;-82
2022/09/02 07:05:08;;;;;;;64.93;35.13;;;;;;;16.84;100.00;99219.44;4853276;29;20173;-83
2022/09/02 07:07:39;;;;;;;70.93;34.78;;;;;;;17.00;100.00;99222.47;4852246;29;20049;-84
2022/09/02 07:10:08;;;;;;;71.38;35.67;;;;;;;16.89;100.00;99212.63;4854216;29;20082;-83
2022/09/02 07:12:34;;;;;;;58.22;32.90;;;;;;;17.11;100.00;99210.22;4852625;29;20415;-82
2022/09/02 07:15:00;;;;;;;60.47;34.95;;;;;;;17.06;100.00;99196.84;4850009;29;20110;-84
2022/09/02 07:17:27;;;;;;;62.65;34.72;;;;;;;17.13;100.00;99203.63;4855651;29;20125;-82
2022/09/02 07:19:58;;;;;;;56.25;32.83;;;;;;;17.09;100.00;99201.66;4849623;29;20165;-86
2022/09/02 07:22:24;;;;;;;63.55;35.30;;;;;;;17.34;100.00;99205.91;4857051;29;20041;-84
2022/09/02 07:24:49;;;;;;;59.70;35.20;;;;;;;17.23;100.00;99204.91;4849861;29;20505;-84
2022/09/02 07:27:16;;;;;;;57.92;33.53;;;;;;;17.40;100.00;99199.66;4853859;29;20033;-83
2022/09/02 07:29:43;;;;;;;62.95;34.92;;;;;;;17.34;100.00;99203.25;4836105;29;20151;-84
2022/09/02 07:32:08;;;;;;;59.97;34.08;;;;;;;17.32;100.00;99200.03;4851629;29;20045;-84
2022/09/02 07:34:34;;;;;;;60.60;33.10;;;;;;;17.50;100.00;99196.38;4851200;29;20037;-83
2022/09/02 07:37:00;;;;;;;53.88;31.35;;;;;;;17.36;100.00;99187.91;4850836;29;20101;-82
2022/09/02 07:39:26;;;;;;;59.65;33.47;;;;;;;17.40;100.00;99202.31;4852142;29;20034;-82
2022/09/02 07:41:52;;;;;;;50.20;31.65;;;;;;;17.41;100.00;99175.53;4860905;29;20156;-83
2022/09/02 07:44:19;;;;;;;54.22;30.70;;;;;;;17.49;100.00;99200.91;4855058;29;20048;-83
2022/09/02 07:46:45;;;;;;;50.08;29.45;;;;;;;17.52;100.00;99183.69;4853516;29;20503;-83
2022/09/02 07:49:12;;;;;;;45.90;29.73;;;;;;;17.43;100.00;99175.28;4851298;29;20034;-82
2022/09/02 07:51:41;;;;;;;49.55;29.17;;;;;;;17.46;100.00;99196.03;4855404;29;20036;-83
2022/09/02 07:54:09;;;;;;;42.97;28.15;;;;;;;17.57;100.00;99186.44;4848665;29;20026;-83
2022/09/02 07:56:35;;;;;;;45.53;28.70;;;;;;;17.68;100.00;99182.13;4840287;29;20037;-84
2022/09/02 07:59:01;;;;;;;50.85;28.67;;;;;;;17.81;100.00;99181.81;4846452;29;20442;-82
2022/09/02 08:01:27;;;;;;;48.90;28.80;;;;;;;17.80;100.00;99185.53;4849315;29;20070;-83
2022/09/02 08:03:53;;;;;;;44.80;27.08;;;;;;;17.96;100.00;99193.75;4849170;29;20497;-83
2022/09/02 08:06:22;;;;;;;37.38;26.83;;;;;;;17.98;100.00;99175.75;4850781;29;20034;-84
2022/09/02 08:08:48;;;;;;;40.67;27.55;;;;;;;18.08;100.00;99175.13;4849685;29;20045;-82
2022/09/02 08:11:14;;;;;;;40.08;26.67;;;;;;;18.06;100.00;99170.06;4851037;29;20030;-83
2022/09/02 08:13:39;;;;;;;37.65;25.65;;;;;;;18.26;100.00;99172.25;4851414;29;20038;-83
2022/09/02 08:16:06;;;;;;;40.25;26.17;;;;;;;18.77;100.00;99173.22;4868598;29;20030;-83
2022/09/02 08:18:32;;;;;;;35.58;23.95;;;;;;;19.02;100.00;99166.66;4851049;29;20081;-83
2022/09/02 08:20:58;;;;;;;36.08;24.35;;;;;;;19.17;100.00;99176.69;4847115;29;20034;-83
2022/09/02 08:23:24;;;;;;;41.10;26.48;;;;;;;19.04;100.00;99164.53;4867916;29;20037;-83
2022/09/02 08:25:50;;;;;;;42.67;25.17;;;;;;;19.08;100.00;99177.13;4844395;29;20061;-83
2022/09/02 08:28:16;;;;;;;33.75;24.50;;;;;;;19.11;100.00;99165.19;4845391;29;20075;-82
2022/09/02 08:30:41;;;;;;;36.15;25.60;;;;;;;19.24;100.00;99159.47;4848058;29;20040;-83
2022/09/02 08:33:07;;;;;;;29.88;24.20;;;;;;;19.37;100.00;99157.47;4858319;29;20125;-84
2022/09/02 08:35:32;;;;;;;32.35;24.10;;;;;;;19.39;100.00;99155.38;4847862;29;20476;-84
2022/09/02 08:37:58;;;;;;;34.45;24.52;;;;;;;19.14;100.00;99148.72;4842805;29;20037;-83
2022/09/02 08:40:49;;;;;;;32.50;22.80;;;;;;;19.34;100.00;99158.00;4852136;29;20503;-83
2022/09/02 08:43:31;;;;;;;35.20;22.95;;;;;;;19.31;100.00;99147.84;4853682;29;20048;-83
2022/09/02 08:46:03;;;;;;;30.98;21.38;;;;;;;19.50;100.00;99157.09;4836557;29;20036;-84
2022/09/02 08:48:41;;;;;;;28.63;20.65;;;;;;;19.80;100.00;99160.31;4858496;29;20048;-84
2022/09/02 08:51:17;;;;;;;27.23;20.15;;;;;;;19.91;100.00;99155.88;4833204;29;20489;-83
2022/09/02 08:53:51;;;;;;;24.75;20.17;;;;;;;20.16;100.00;99139.31;4852212;29;20139;-83
2022/09/02 08:56:18;;;;;;;33.65;23.55;;;;;;;20.38;100.00;99149.06;4846281;29;20508;-84
2022/09/02 08:58:55;;;;;;;21.98;19.30;;;;;;;20.63;100.00;99156.41;4843430;29;20042;-85
2022/09/02 09:01:45;;;;;;;24.08;20.42;;;;;;;20.63;100.00;99156.41;4856356;29;20373;-84
2022/09/02 09:04:48;;;;;;;23.98;18.38;;;;;;;20.89;100.00;99142.41;4850991;29;20505;-84
2022/09/02 09:07:36;;;;;;;21.25;17.08;;;;;;;21.04;100.00;99144.38;4825405;29;20401;-84
2022/09/02 09:10:12;;;;;;;23.48;17.83;;;;;;;20.89;100.00;99153.91;4843968;29;20053;-85
2022/09/02 09:13:11;;;;;;;26.17;17.73;;;;;;;20.85;100.00;99136.81;4849135;29;20393;-86
2022/09/02 09:16:02;;;;;;;17.85;16.05;;;;;;;21.04;100.00;99133.69;4845881;29;20472;-85
2022/09/02 09:18:39;;;;;;;21.38;16.98;;;;;;;21.14;100.00;99141.72;4847780;29;20046;-85
2022/09/02 09:21:09;;;;;;;18.42;16.48;;;;;;;20.75;100.00;99132.22;4850274;29;20429;-84
2022/09/02 09:23:38;;;;;;;19.17;15.35;;;;;;;21.02;100.00;99130.44;4845881;29;20053;-83
2022/09/02 09:26:17;;;;;;;18.35;16.27;;;;;;;20.96;100.00;99113.66;4850740;29;20030;-85
2022/09/02 09:28:49;;;;;;;21.38;18.02;;;;;;;20.75;100.00;99116.22;4852225;29;20044;-87
2022/09/02 09:31:19;;;;;;;21.52;15.70;;;;;;;21.40;100.00;99131.09;4850282;29;20025;-82
2022/09/02 09:34:00;;;;;;;22.75;16.48;;;;;;;21.60;100.00;99126.84;4855587;29;20045;-82
2022/09/02 09:36:38;;;;;;;21.63;16.45;;;;;;;21.97;100.00;99123.16;4832533;29;20061;-83
2022/09/02 09:39:30;;;;;;;20.08;14.63;;;;;;;22.36;100.00;99119.91;4847037;29;20034;-82
2022/09/02 09:42:10;;;;;;;19.08;15.40;;;;;;;22.21;100.00;99114.59;4846024;29;20030;-82
2022/09/02 09:44:37;;;;;;;15.15;13.60;;;;;;;22.26;100.00;99103.91;4852771;29;20372;-82
2022/09/02 09:47:09;;;;;;;16.67;14.77;;;;;;;22.09;100.00;99110.34;4847391;29;20094;-81
2022/09/02 09:49:37;;;;;;;17.45;14.35;;;;;;;22.06;100.00;99105.53;4850660;29;20076;-82
2022/09/02 09:52:04;;;;;;;23.05;14.60;;;;;;;22.25;100.00;99108.44;4845831;29;20454;-81
2022/09/02 09:54:29;;;;;;;19.98;15.27;;;;;;;22.32;100.00;99102.81;4851664;29;20051;-82
2022/09/02 09:57:11;;;;;;;16.17;13.00;;;;;;;22.28;100.00;99098.25;4851498;29;20038;-83
2022/09/02 09:59:46;;;;;;;18.75;13.70;;;;;;;22.43;100.00;99102.78;4848189;29;20102;-83
2022/09/02 10:02:23;;;;;;;17.60;14.60;;;;;;;22.23;100.00;99093.75;4852339;29;20504;-82
2022/09/02 10:04:54;;;;;;;14.98;11.90;;;;;;;22.39;100.00;99087.25;4849553;29;20483;-82
2022/09/02 10:07:40;;;;;;;18.83;13.85;;;;;;;22.30;100.00;99067.53;4851419;29;20388;-82
2022/09/02 10:10:35;;;;;;;15.63;12.10;;;;;;;22.62;100.00;99084.28;4851832;29;20053;-81
2022/09/02 10:13:22;;;;;;;13.45;11.40;;;;;;;22.86;100.00;99081.78;4837688;29;20113;-82
2022/09/02 10:16:10;;;;;;;14.40;10.50;;;;;;;22.81;100.00;99076.47;4849506;29;20377;-82
2022/09/02 10:18:57;;;;;;;14.02;10.68;;;;;;;22.61;100.00;99077.34;4848788;29;20056;-82
2022/09/02 10:21:53;;;;;;;12.68;10.02;;;;;;;22.59;100.00;99069.56;4845397;29;20113;-82
2022/09/02 10:24:35;;;;;;;12.07;9.38;;;;;;;22.57;100.00;99065.59;4847451;29;20043;-82
2022/09/02 10:27:07;;;;;;;12.57;10.50;;;;;;;22.34;100.00;99065.91;4848066;29;20038;-82
2022/09/02 10:29:41;;;;;;;14.23;9.65;;;;;;;22.45;100.00;99057.84;4849997;29;20057;-82
2022/09/02 10:32:19;;;;;;;12.23;9.60;;;;;;;22.23;100.00;99056.31;4846668;29;20038;-82
2022/09/02 10:35:04;;;;;;;15.32;10.02;;;;;;;22.38;100.00;99069.63;4847443;29;20034;-82
2022/09/02 10:37:41;;;;;;;10.90;8.88;;;;;;;22.64;100.00;99056.22;4847200;29;20038;-83
2022/09/02 10:40:19;;;;;;;14.35;9.63;;;;;;;22.74;100.00;99058.03;4850448;29;20164;-82
2022/09/02 10:43:03;;;;;;;10.88;7.78;;;;;;;23.36;100.00;99046.97;4847027;29;20044;-82
2022/09/02 10:45:52;;;;;;;9.63;7.55;;;;;;;23.88;100.00;99043.06;4849899;29;20037;-82
2022/09/02 10:48:45;;;;;;;10.98;7.25;;;;;;;24.43;100.00;99044.66;4846099;29;22143;-83
2022/09/02 10:51:25;;;;;;;9.20;6.40;;;;;;;24.55;100.00;99044.25;4846123;29;20033;-82
2022/09/02 10:54:03;;;;;;;8.73;6.78;;;;;;;24.68;100.00;99043.53;4848946;29;20100;-82
2022/09/02 10:56:49;;;;;;;11.95;7.65;;;;;;;24.55;100.00;99046.94;4846838;29;21276;-83
2022/09/02 10:59:31;;;;;;;13.00;8.00;;;;;;;24.31;100.00;99043.16;4844643;29;20373;-82
2022/09/02 11:02:20;;;;;;;14.05;7.75;;;;;;;24.02;100.00;99044.03;4850798;29;20102;-83
2022/09/02 11:05:13;;;;;;;13.25;7.03;;;;;;;24.31;100.00;99026.28;4846801;29;20097;-82
2022/09/02 11:07:39;;;;;;;8.75;7.90;;;;;;;24.65;100.00;99034.19;4847202;29;20034;-82
2022/09/02 11:10:22;;;;;;;13.05;8.20;;;;;;;24.44;100.00;99038.19;4850662;29;20388;-83
2022/09/02 11:12:59;;;;;;;14.35;9.27;;;;;;;24.64;100.00;99029.09;4853164;29;20045;-82
2022/09/02 11:15:46;;;;;;;9.65;7.90;;;;;;;24.99;100.00;99018.19;4848768;29;20053;-82
2022/09/02 11:18:48;;;;;;;9.00;8.00;;;;;;;25.10;100.00;99030.38;4845552;29;20037;-88
2022/09/02 11:21:33;;;;;;;10.70;8.75;;;;;;;24.85;100.00;99016.22;4849087;29;20528;-88
2022/09/02 11:24:21;;;;;;;12.45;9.23;;;;;;;24.74;100.00;99001.31;4834506;29;20102;-84
2022/09/02 11:27:11;;;;;;;12.80;9.07;;;;;;;25.05;100.00;99015.13;4851126;29;20036;-85